»·PEaware :: DFGCW 33V-X43

DFGCW :: 33V-X43

FLIGHT INFORMATION

Flight Status: Arrived
Operator: Unknown
More flights by this operator :: More flights under this callsign
Pilot: Klaus A. (15485)
Aircraft: PILATUS PC-12 EAGLE
(PC12)
More flights by this aircraft type
Origin: 33V Walden-Jackson Co
United States
Destination: X43 Sunray
United States
More flights between these airports :: More routes between these airports
Route: DCT
File this flight plan on PilotEdge
Remarks: / G Custom weather
Altitude:
(Current/Filed)
17,000ft
Speed:
(Current/Filed)
270kts
Departed: 29-Oct-18 08:45 AM
Arrived: 29-Oct-18 10:11 AM
Distance/Time
Traveled:
352nm/1:25
Distance/Time
To Go:
Arrived

Flight Plot

Page will automatically refresh every two minutes.

Flight plan parsing failed; only flown route is shown


Map Options




Map Legend


Flown Route
Filed Route
Departure Airport
Arrival Airport
Navaid (VOR, NDB)
Fix

Horizontal Profiles

Position Reports

Time Latitude Longitude Heading Altitude Ground
Speed
29-Oct-18 08:39 40.744682 -106.273616 269 8157ft 0kts
29-Oct-18 08:40 40.744682 -106.273616 269 8157ft 0kts
29-Oct-18 08:41 40.744669 -106.273805 273 8156ft 5kts
29-Oct-18 08:42 40.746465 -106.275331 321 8157ft 0kts
29-Oct-18 08:43 40.748332 -106.274078 45 8156ft 17kts
29-Oct-18 08:44 40.753303 -106.267352 45 8157ft 33kts
29-Oct-18 08:45 40.755624 -106.264171 225 8157ft 0kts
29-Oct-18 08:46 40.755512 -106.264310 224 8157ft 14kts
29-Oct-18 08:47 40.736963 -106.286819 203 9200ft 125kts
29-Oct-18 08:48 40.698856 -106.267877 142 10596ft 195kts
29-Oct-18 08:49 40.660046 -106.218299 152 12315ft 191kts
29-Oct-18 08:50 40.617257 -106.174228 153 13755ft 200kts
29-Oct-18 08:51 40.575824 -106.131599 154 15032ft 205kts
29-Oct-18 08:52 40.530368 -106.084961 155 16285ft 210kts
29-Oct-18 08:53 40.482403 -106.036066 154 17006ft 241kts
29-Oct-18 08:54 40.425268 -105.977559 152 17058ft 271kts
29-Oct-18 08:55 40.364786 -105.915819 152 17063ft 280kts
29-Oct-18 08:56 40.302972 -105.852910 152 17063ft 283kts
29-Oct-18 08:57 40.240594 -105.789657 151 17061ft 284kts
29-Oct-18 08:58 40.178098 -105.726322 151 17064ft 286kts
29-Oct-18 08:59 40.114726 -105.662311 151 17064ft 288kts
29-Oct-18 09:00 40.051519 -105.598618 151 17065ft 288kts
29-Oct-18 09:01 39.988591 -105.535359 151 17167ft 287kts
29-Oct-18 09:02 39.924769 -105.471353 151 17029ft 290kts
29-Oct-18 09:04 39.862764 -105.409349 151 17025ft 292kts
29-Oct-18 09:05 39.798813 -105.345495 151 16881ft 293kts
29-Oct-18 09:06 39.734824 -105.281895 150 16875ft 289kts
29-Oct-18 09:07 39.674317 -105.221759 149 16876ft 287kts
29-Oct-18 09:08 39.611037 -105.158967 149 16904ft 286kts
29-Oct-18 09:09 39.547810 -105.096456 149 16905ft 286kts
29-Oct-18 09:10 39.484400 -105.033908 149 16887ft 287kts
29-Oct-18 09:11 39.421088 -104.971604 149 16888ft 287kts
29-Oct-18 09:12 39.357607 -104.909281 149 16888ft 287kts
29-Oct-18 09:13 39.294454 -104.847419 149 16980ft 285kts
29-Oct-18 09:14 39.231133 -104.785674 148 16982ft 286kts
29-Oct-18 09:15 39.169758 -104.725771 147 16994ft 283kts
29-Oct-18 09:16 39.107061 -104.664717 147 17001ft 283kts
29-Oct-18 09:17 39.044375 -104.603874 147 17002ft 283kts
29-Oct-18 09:18 38.981596 -104.543083 147 17002ft 283kts
29-Oct-18 09:19 38.918797 -104.482409 147 17003ft 283kts
29-Oct-18 09:20 38.856980 -104.422824 147 17002ft 283kts
29-Oct-18 09:21 38.793866 -104.362122 147 16948ft 284kts
29-Oct-18 09:22 38.731392 -104.302212 147 16943ft 282kts
29-Oct-18 09:23 38.668710 -104.242152 147 16944ft 281kts
29-Oct-18 09:24 38.606385 -104.182606 147 16943ft 280kts
29-Oct-18 09:25 38.543990 -104.123130 147 16944ft 280kts
29-Oct-18 09:26 38.481743 -104.063926 147 16944ft 280kts
29-Oct-18 09:27 38.419331 -104.004701 147 16900ft 281kts
29-Oct-18 09:28 38.356726 -103.945412 147 16898ft 280kts
29-Oct-18 09:28 38.304678 -103.896226 147 16890ft 280kts
29-Oct-18 09:30 38.231833 -103.827527 147 16890ft 280kts
29-Oct-18 09:30 38.179789 -103.778569 147 16892ft 281kts
29-Oct-18 09:32 38.107323 -103.710530 147 17005ft 279kts
29-Oct-18 09:32 38.055176 -103.661683 147 17005ft 280kts
29-Oct-18 09:34 37.982013 -103.593291 147 17005ft 280kts
29-Oct-18 09:34 37.929636 -103.544436 147 17006ft 281kts
29-Oct-18 09:36 37.857215 -103.477034 147 17006ft 281kts
29-Oct-18 09:36 37.804804 -103.428360 147 17006ft 281kts
29-Oct-18 09:38 37.731412 -103.360331 147 17006ft 281kts
29-Oct-18 09:38 37.679204 -103.312061 148 17001ft 281kts
29-Oct-18 09:39 37.616382 -103.254084 148 17001ft 281kts
29-Oct-18 09:40 37.553270 -103.195961 148 17002ft 281kts
29-Oct-18 09:41 37.490247 -103.138045 148 16993ft 281kts
29-Oct-18 09:42 37.427206 -103.080235 148 16993ft 281kts
29-Oct-18 09:43 37.363977 -103.022377 148 17004ft 281kts
29-Oct-18 09:44 37.300911 -102.964790 148 17004ft 281kts
29-Oct-18 09:45 37.237875 -102.907396 148 17005ft 281kts
29-Oct-18 09:46 37.174610 -102.849830 148 17005ft 281kts
29-Oct-18 09:47 37.111295 -102.792380 148 17005ft 281kts
29-Oct-18 09:48 37.048164 -102.735224 148 17006ft 280kts
29-Oct-18 09:49 36.985160 -102.678290 148 17006ft 280kts
29-Oct-18 09:50 36.922005 -102.621347 148 17006ft 279kts
29-Oct-18 09:51 36.859495 -102.565105 148 17006ft 279kts
29-Oct-18 09:52 36.798961 -102.510749 148 17006ft 279kts
29-Oct-18 09:53 36.735818 -102.454218 147 16696ft 285kts
29-Oct-18 09:54 36.672690 -102.397731 147 15408ft 275kts
29-Oct-18 09:55 36.612219 -102.343767 147 14098ft 270kts
29-Oct-18 09:56 36.551374 -102.289565 146 12692ft 268kts
29-Oct-18 09:57 36.491251 -102.236099 146 11293ft 266kts
29-Oct-18 09:58 36.434663 -102.185872 146 9873ft 239kts
29-Oct-18 09:59 36.382013 -102.139243 146 8462ft 227kts
29-Oct-18 10:00 36.331416 -102.094490 147 7060ft 221kts
29-Oct-18 10:01 36.281881 -102.050771 148 5657ft 217kts
29-Oct-18 10:02 36.235163 -102.009520 149 4973ft 187kts
29-Oct-18 10:03 36.194460 -101.973770 150 4999ft 180kts
29-Oct-18 10:04 36.152718 -101.937078 149 4995ft 183kts
29-Oct-18 10:05 36.113610 -101.902734 150 4997ft 167kts
29-Oct-18 10:06 36.076354 -101.870061 149 4996ft 161kts
29-Oct-18 10:07 36.039488 -101.838985 160 4572ft 172kts
29-Oct-18 10:08 36.005766 -101.816208 89 4511ft 162kts
29-Oct-18 10:09 36.033455 -101.785711 351 4208ft 158kts
29-Oct-18 10:10 36.073521 -101.797692 305 4246ft 129kts
29-Oct-18 10:11 36.065665 -101.834350 185 4022ft 133kts
29-Oct-18 10:12 36.031302 -101.828874 192 3512ft 97kts
29-Oct-18 10:13 36.025465 -101.828657 155 3512ft 0kts
29-Oct-18 10:14 36.025020 -101.828402 169 3512ft 0kts
29-Oct-18 10:15 36.025020 -101.828403 169 3512ft 0kts
29-Oct-18 10:16 36.025020 -101.828403 169 3512ft 0kts
29-Oct-18 10:17 36.025020 -101.828403 169 3512ft 0kts
29-Oct-18 10:18 36.025020 -101.828403 169 3512ft 0kts
29-Oct-18 10:19 36.025020 -101.828403 169 3512ft 0kts
29-Oct-18 10:20 36.025020 -101.828403 169 3512ft 0kts

Navigation Log

Ident Type
Flight plan parsing failed, navigation log unavailable